Terminal Aerodrome Forecast
Issued by NWS Cleveland, OH

Home | Current Version | Previous Version | Text Only | Print | Product List | Glossary Off
Versions: 1 2 3 4 5 6 7 8 9 10 11 12 13 14 15 16 17 18

000
FTUS41 KCLE 172340
TAFCAK
TAF
KCAK 172340Z 1800/1824 17010KT P6SM OVC200
     FM180500 18012G18KT P6SM VCSH OVC150 WS020/20040KT
     FM180800 19012G20KT 6SM -SHRA BR OVC070 WS020/21040KT
      TEMPO 1808/1810 4SM RA BR OVC020
     FM181000 19012G20KT 3SM SHRA BR VCTS OVC015CB
      TEMPO 1810/1814 1SM -TSRA BR OVC007CB
     FM181400 20015G25KT 5SM -SHRA BR VCTS OVC007CB
     FM181800 21020G30KT 3SM SHRA BR VCTS OVC003CB=

USA.gov is the U.S. government's official web portal to all federal, state and local government web resources and services.